sensor_id;sensor_type;location;lat;lon;timestamp;P1;durP1;ratioP1;P2;durP2;ratioP2
29878;SDS011;16752;53.364;-1.488;2023-06-10T00:01:22;19.45;;;10.55;;
29878;SDS011;16752;53.364;-1.488;2023-06-10T00:07:29;23.73;;;11.32;;
29878;SDS011;16752;53.364;-1.488;2023-06-10T00:10:13;15.57;;;10.70;;
29878;SDS011;16752;53.364;-1.488;2023-06-10T00:22:42;18.88;;;10.57;;
29878;SDS011;16752;53.364;-1.488;2023-06-10T00:47:01;27.02;;;19.45;;
29878;SDS011;16752;53.364;-1.488;2023-06-10T00:52:58;29.58;;;21.55;;
29878;SDS011;16752;53.364;-1.488;2023-06-10T00:55:54;31.92;;;21.60;;
29878;SDS011;16752;53.364;-1.488;2023-06-10T00:58:38;31.38;;;20.92;;
29878;SDS011;16752;53.364;-1.488;2023-06-10T01:01:28;32.03;;;19.92;;
29878;SDS011;16752;53.364;-1.488;2023-06-10T01:04:13;28.95;;;19.92;;
29878;SDS011;16752;53.364;-1.488;2023-06-10T01:10:11;33.55;;;21.65;;
29878;SDS011;16752;53.364;-1.488;2023-06-10T01:13:05;31.77;;;22.30;;
29878;SDS011;16752;53.364;-1.488;2023-06-10T01:15:55;28.70;;;19.50;;
29878;SDS011;16752;53.364;-1.488;2023-06-10T01:18:43;31.52;;;22.20;;
29878;SDS011;16752;53.364;-1.488;2023-06-10T01:24:42;33.92;;;23.23;;
29878;SDS011;16752;53.364;-1.488;2023-06-10T01:27:28;45.95;;;22.25;;
29878;SDS011;16752;53.364;-1.488;2023-06-10T01:30:20;44.08;;;27.02;;
29878;SDS011;16752;53.364;-1.488;2023-06-10T01:33:13;35.92;;;22.60;;
29878;SDS011;16752;53.364;-1.488;2023-06-10T01:36:01;40.00;;;25.30;;
29878;SDS011;16752;53.364;-1.488;2023-06-10T01:39:02;35.92;;;24.10;;
29878;SDS011;16752;53.364;-1.488;2023-06-10T01:42:02;42.28;;;24.58;;
29878;SDS011;16752;53.364;-1.488;2023-06-10T01:44:50;34.15;;;23.83;;
29878;SDS011;16752;53.364;-1.488;2023-06-10T01:47:35;41.30;;;26.42;;
29878;SDS011;16752;53.364;-1.488;2023-06-10T01:50:19;42.42;;;26.67;;
29878;SDS011;16752;53.364;-1.488;2023-06-10T01:53:03;48.67;;;26.95;;
29878;SDS011;16752;53.364;-1.488;2023-06-10T01:55:48;37.65;;;24.98;;
29878;SDS011;16752;53.364;-1.488;2023-06-10T01:58:32;36.33;;;23.55;;
29878;SDS011;16752;53.364;-1.488;2023-06-10T02:01:18;36.53;;;23.38;;
29878;SDS011;16752;53.364;-1.488;2023-06-10T02:04:05;37.40;;;24.25;;
29878;SDS011;16752;53.364;-1.488;2023-06-10T02:06:52;39.53;;;22.75;;
29878;SDS011;16752;53.364;-1.488;2023-06-10T02:09:37;36.25;;;22.90;;
29878;SDS011;16752;53.364;-1.488;2023-06-10T02:12:20;36.22;;;22.67;;
29878;SDS011;16752;53.364;-1.488;2023-06-10T02:15:08;37.53;;;23.45;;
29878;SDS011;16752;53.364;-1.488;2023-06-10T02:17:52;38.30;;;23.92;;
29878;SDS011;16752;53.364;-1.488;2023-06-10T02:20:39;32.28;;;20.48;;
29878;SDS011;16752;53.364;-1.488;2023-06-10T02:23:26;30.95;;;21.05;;
29878;SDS011;16752;53.364;-1.488;2023-06-10T02:26:22;32.50;;;21.75;;
29878;SDS011;16752;53.364;-1.488;2023-06-10T02:29:16;33.17;;;20.88;;
29878;SDS011;16752;53.364;-1.488;2023-06-10T02:32:11;37.25;;;22.15;;
29878;SDS011;16752;53.364;-1.488;2023-06-10T02:35:02;40.17;;;22.02;;
29878;SDS011;16752;53.364;-1.488;2023-06-10T02:37:47;29.23;;;20.00;;
29878;SDS011;16752;53.364;-1.488;2023-06-10T02:43:33;32.05;;;19.40;;
29878;SDS011;16752;53.364;-1.488;2023-06-10T02:46:17;26.08;;;16.40;;
29878;SDS011;16752;53.364;-1.488;2023-06-10T02:49:01;28.33;;;18.35;;
29878;SDS011;16752;53.364;-1.488;2023-06-10T02:51:46;26.73;;;18.90;;
29878;SDS011;16752;53.364;-1.488;2023-06-10T02:54:30;28.80;;;20.00;;
29878;SDS011;16752;53.364;-1.488;2023-06-10T02:57:14;37.05;;;20.77;;
29878;SDS011;16752;53.364;-1.488;2023-06-10T02:59:58;29.30;;;20.33;;
29878;SDS011;16752;53.364;-1.488;2023-06-10T03:02:42;31.20;;;19.63;;
29878;SDS011;16752;53.364;-1.488;2023-06-10T03:05:30;34.55;;;21.52;;
29878;SDS011;16752;53.364;-1.488;2023-06-10T03:08:16;31.10;;;19.20;;
29878;SDS011;16752;53.364;-1.488;2023-06-10T03:11:09;29.35;;;20.85;;
29878;SDS011;16752;53.364;-1.488;2023-06-10T03:17:52;29.30;;;17.98;;
29878;SDS011;16752;53.364;-1.488;2023-06-10T03:20:36;36.92;;;20.02;;
29878;SDS011;16752;53.364;-1.488;2023-06-10T03:23:21;29.48;;;18.23;;
29878;SDS011;16752;53.364;-1.488;2023-06-10T03:26:05;32.15;;;18.73;;
29878;SDS011;16752;53.364;-1.488;2023-06-10T03:28:49;36.35;;;19.50;;
29878;SDS011;16752;53.364;-1.488;2023-06-10T03:31:33;31.33;;;19.50;;
29878;SDS011;16752;53.364;-1.488;2023-06-10T03:34:18;34.47;;;21.90;;
29878;SDS011;16752;53.364;-1.488;2023-06-10T03:37:02;28.40;;;18.83;;
29878;SDS011;16752;53.364;-1.488;2023-06-10T03:39:47;25.83;;;17.77;;
29878;SDS011;16752;53.364;-1.488;2023-06-10T03:42:31;38.30;;;19.52;;
29878;SDS011;16752;53.364;-1.488;2023-06-10T03:45:15;32.88;;;19.98;;
29878;SDS011;16752;53.364;-1.488;2023-06-10T03:47:59;35.00;;;20.02;;
29878;SDS011;16752;53.364;-1.488;2023-06-10T03:50:45;38.03;;;21.15;;
29878;SDS011;16752;53.364;-1.488;2023-06-10T03:53:31;35.20;;;20.80;;
29878;SDS011;16752;53.364;-1.488;2023-06-10T03:56:15;36.53;;;20.80;;
29878;SDS011;16752;53.364;-1.488;2023-06-10T03:58:59;35.00;;;21.13;;
29878;SDS011;16752;53.364;-1.488;2023-06-10T04:01:43;40.75;;;21.08;;
29878;SDS011;16752;53.364;-1.488;2023-06-10T04:04:28;28.25;;;19.05;;
29878;SDS011;16752;53.364;-1.488;2023-06-10T04:07:15;34.00;;;19.23;;
29878;SDS011;16752;53.364;-1.488;2023-06-10T04:09:59;33.63;;;19.75;;
29878;SDS011;16752;53.364;-1.488;2023-06-10T04:12:43;38.92;;;21.80;;
29878;SDS011;16752;53.364;-1.488;2023-06-10T04:15:28;36.53;;;20.33;;
29878;SDS011;16752;53.364;-1.488;2023-06-10T04:18:12;39.22;;;19.15;;
29878;SDS011;16752;53.364;-1.488;2023-06-10T04:20:57;34.22;;;18.38;;
29878;SDS011;16752;53.364;-1.488;2023-06-10T04:23:41;34.80;;;19.30;;
29878;SDS011;16752;53.364;-1.488;2023-06-10T04:26:25;35.83;;;18.35;;
29878;SDS011;16752;53.364;-1.488;2023-06-10T04:29:09;31.05;;;19.23;;
29878;SDS011;16752;53.364;-1.488;2023-06-10T04:31:53;38.35;;;19.38;;
29878;SDS011;16752;53.364;-1.488;2023-06-10T04:34:37;31.73;;;18.25;;
29878;SDS011;16752;53.364;-1.488;2023-06-10T04:37:24;36.83;;;18.95;;
29878;SDS011;16752;53.364;-1.488;2023-06-10T04:40:09;30.90;;;16.85;;
29878;SDS011;16752;53.364;-1.488;2023-06-10T04:42:54;33.15;;;18.50;;
29878;SDS011;16752;53.364;-1.488;2023-06-10T04:45:38;34.28;;;18.13;;
29878;SDS011;16752;53.364;-1.488;2023-06-10T04:48:24;34.28;;;18.17;;
29878;SDS011;16752;53.364;-1.488;2023-06-10T04:51:11;33.25;;;18.13;;
29878;SDS011;16752;53.364;-1.488;2023-06-10T04:53:55;32.08;;;17.25;;
29878;SDS011;16752;53.364;-1.488;2023-06-10T04:56:39;31.80;;;16.75;;
29878;SDS011;16752;53.364;-1.488;2023-06-10T04:59:24;32.58;;;16.00;;
29878;SDS011;16752;53.364;-1.488;2023-06-10T05:02:07;34.15;;;16.88;;
29878;SDS011;16752;53.364;-1.488;2023-06-10T05:04:51;27.65;;;15.65;;
29878;SDS011;16752;53.364;-1.488;2023-06-10T05:07:37;30.67;;;16.83;;
29878;SDS011;16752;53.364;-1.488;2023-06-10T05:10:21;31.48;;;15.98;;
29878;SDS011;16752;53.364;-1.488;2023-06-10T05:13:05;25.23;;;15.38;;
29878;SDS011;16752;53.364;-1.488;2023-06-10T05:15:49;21.23;;;15.25;;
29878;SDS011;16752;53.364;-1.488;2023-06-10T05:18:33;25.73;;;13.80;;
29878;SDS011;16752;53.364;-1.488;2023-06-10T05:21:17;28.98;;;14.73;;
29878;SDS011;16752;53.364;-1.488;2023-06-10T05:24:01;29.83;;;15.57;;
29878;SDS011;16752;53.364;-1.488;2023-06-10T05:26:45;26.20;;;14.63;;
29878;SDS011;16752;53.364;-1.488;2023-06-10T05:29:30;18.55;;;12.57;;
29878;SDS011;16752;53.364;-1.488;2023-06-10T05:32:14;24.15;;;13.63;;
29878;SDS011;16752;53.364;-1.488;2023-06-10T05:34:58;30.17;;;15.25;;
29878;SDS011;16752;53.364;-1.488;2023-06-10T05:37:44;23.55;;;13.45;;
29878;SDS011;16752;53.364;-1.488;2023-06-10T05:40:28;23.42;;;13.15;;
29878;SDS011;16752;53.364;-1.488;2023-06-10T05:43:13;22.13;;;12.13;;
29878;SDS011;16752;53.364;-1.488;2023-06-10T05:46:00;20.73;;;13.18;;
29878;SDS011;16752;53.364;-1.488;2023-06-10T05:48:44;30.50;;;13.68;;
29878;SDS011;16752;53.364;-1.488;2023-06-10T05:51:28;19.33;;;11.57;;
29878;SDS011;16752;53.364;-1.488;2023-06-10T05:54:18;22.05;;;11.70;;
29878;SDS011;16752;53.364;-1.488;2023-06-10T05:57:03;21.15;;;12.05;;
29878;SDS011;16752;53.364;-1.488;2023-06-10T05:59:47;21.30;;;11.20;;
29878;SDS011;16752;53.364;-1.488;2023-06-10T06:02:34;21.73;;;12.05;;
29878;SDS011;16752;53.364;-1.488;2023-06-10T06:05:18;19.63;;;11.65;;
29878;SDS011;16752;53.364;-1.488;2023-06-10T06:08:02;18.77;;;10.82;;
29878;SDS011;16752;53.364;-1.488;2023-06-10T06:10:49;28.35;;;11.63;;
29878;SDS011;16752;53.364;-1.488;2023-06-10T06:13:37;22.08;;;11.63;;
29878;SDS011;16752;53.364;-1.488;2023-06-10T06:16:28;25.35;;;11.82;;
29878;SDS011;16752;53.364;-1.488;2023-06-10T06:19:12;20.58;;;11.07;;
29878;SDS011;16752;53.364;-1.488;2023-06-10T06:21:59;16.88;;;9.48;;
29878;SDS011;16752;53.364;-1.488;2023-06-10T06:24:46;17.08;;;10.82;;
29878;SDS011;16752;53.364;-1.488;2023-06-10T06:27:30;19.77;;;11.23;;
29878;SDS011;16752;53.364;-1.488;2023-06-10T06:30:15;18.35;;;11.23;;
29878;SDS011;16752;53.364;-1.488;2023-06-10T06:32:59;23.98;;;11.65;;
29878;SDS011;16752;53.364;-1.488;2023-06-10T06:35:43;22.92;;;11.20;;
29878;SDS011;16752;53.364;-1.488;2023-06-10T06:38:27;19.42;;;9.98;;
29878;SDS011;16752;53.364;-1.488;2023-06-10T06:41:11;26.70;;;11.43;;
29878;SDS011;16752;53.364;-1.488;2023-06-10T06:43:55;20.92;;;12.27;;
29878;SDS011;16752;53.364;-1.488;2023-06-10T06:46:43;21.17;;;11.48;;
29878;SDS011;16752;53.364;-1.488;2023-06-10T06:49:28;20.50;;;12.20;;
29878;SDS011;16752;53.364;-1.488;2023-06-10T06:52:17;27.52;;;11.90;;
29878;SDS011;16752;53.364;-1.488;2023-06-10T06:55:01;20.75;;;10.52;;
29878;SDS011;16752;53.364;-1.488;2023-06-10T06:57:47;27.70;;;11.68;;
29878;SDS011;16752;53.364;-1.488;2023-06-10T07:00:32;26.52;;;11.32;;
29878;SDS011;16752;53.364;-1.488;2023-06-10T07:03:16;17.55;;;9.57;;
29878;SDS011;16752;53.364;-1.488;2023-06-10T07:06:00;18.58;;;10.30;;
29878;SDS011;16752;53.364;-1.488;2023-06-10T07:08:48;20.75;;;9.55;;
29878;SDS011;16752;53.364;-1.488;2023-06-10T07:11:38;21.23;;;9.45;;
29878;SDS011;16752;53.364;-1.488;2023-06-10T07:14:25;15.80;;;9.15;;
29878;SDS011;16752;53.364;-1.488;2023-06-10T07:17:09;26.40;;;11.65;;
29878;SDS011;16752;53.364;-1.488;2023-06-10T07:19:52;18.27;;;11.15;;
29878;SDS011;16752;53.364;-1.488;2023-06-10T07:22:39;15.52;;;9.98;;
29878;SDS011;16752;53.364;-1.488;2023-06-10T07:25:23;15.52;;;10.65;;
29878;SDS011;16752;53.364;-1.488;2023-06-10T07:28:10;18.80;;;9.70;;
29878;SDS011;16752;53.364;-1.488;2023-06-10T07:30:56;21.05;;;10.40;;
29878;SDS011;16752;53.364;-1.488;2023-06-10T07:33:47;19.98;;;10.25;;
29878;SDS011;16752;53.364;-1.488;2023-06-10T07:36:34;16.40;;;9.48;;
29878;SDS011;16752;53.364;-1.488;2023-06-10T07:42:59;17.50;;;8.98;;
29878;SDS011;16752;53.364;-1.488;2023-06-10T07:45:46;20.30;;;8.88;;
29878;SDS011;16752;53.364;-1.488;2023-06-10T07:48:33;14.43;;;8.07;;
29878;SDS011;16752;53.364;-1.488;2023-06-10T07:51:17;14.85;;;8.40;;
29878;SDS011;16752;53.364;-1.488;2023-06-10T07:54:01;12.68;;;8.50;;
29878;SDS011;16752;53.364;-1.488;2023-06-10T07:57:02;21.15;;;8.80;;
29878;SDS011;16752;53.364;-1.488;2023-06-10T08:00:13;20.93;;;9.13;;
29878;SDS011;16752;53.364;-1.488;2023-06-10T08:03:16;15.65;;;8.52;;
29878;SDS011;16752;53.364;-1.488;2023-06-10T08:06:00;20.58;;;9.27;;
29878;SDS011;16752;53.364;-1.488;2023-06-10T08:08:55;12.88;;;7.20;;
29878;SDS011;16752;53.364;-1.488;2023-06-10T08:15:01;16.63;;;8.35;;
29878;SDS011;16752;53.364;-1.488;2023-06-10T08:17:52;16.90;;;8.02;;
29878;SDS011;16752;53.364;-1.488;2023-06-10T08:27:22;11.93;;;7.63;;
29878;SDS011;16752;53.364;-1.488;2023-06-10T08:30:07;15.95;;;7.05;;
29878;SDS011;16752;53.364;-1.488;2023-06-10T08:46:06;15.85;;;8.25;;
29878;SDS011;16752;53.364;-1.488;2023-06-10T08:48:54;15.95;;;7.00;;
29878;SDS011;16752;53.364;-1.488;2023-06-10T08:58:11;15.70;;;7.47;;
29878;SDS011;16752;53.364;-1.488;2023-06-10T09:01:29;19.92;;;8.43;;
29878;SDS011;16752;53.364;-1.488;2023-06-10T09:04:41;13.82;;;8.20;;
29878;SDS011;16752;53.364;-1.488;2023-06-10T09:08:09;21.27;;;7.88;;
29878;SDS011;16752;53.364;-1.488;2023-06-10T09:14:01;20.00;;;7.65;;
29878;SDS011;16752;53.364;-1.488;2023-06-10T09:24:18;12.40;;;7.10;;
29878;SDS011;16752;53.364;-1.488;2023-06-10T09:27:15;12.82;;;6.57;;
29878;SDS011;16752;53.364;-1.488;2023-06-10T09:29:59;18.15;;;7.63;;
29878;SDS011;16752;53.364;-1.488;2023-06-10T09:36:21;22.48;;;8.70;;
29878;SDS011;16752;53.364;-1.488;2023-06-10T09:40:08;20.65;;;8.27;;
29878;SDS011;16752;53.364;-1.488;2023-06-10T09:46:19;14.77;;;6.72;;
29878;SDS011;16752;53.364;-1.488;2023-06-10T09:55:37;15.27;;;7.85;;
29878;SDS011;16752;53.364;-1.488;2023-06-10T10:01:57;14.88;;;7.70;;
29878;SDS011;16752;53.364;-1.488;2023-06-10T10:22:14;18.95;;;8.63;;
29878;SDS011;16752;53.364;-1.488;2023-06-10T10:32:34;14.27;;;8.57;;
29878;SDS011;16752;53.364;-1.488;2023-06-10T10:38:43;15.43;;;8.15;;
29878;SDS011;16752;53.364;-1.488;2023-06-10T10:41:46;16.70;;;8.27;;
29878;SDS011;16752;53.364;-1.488;2023-06-10T10:47:36;12.73;;;8.27;;
29878;SDS011;16752;53.364;-1.488;2023-06-10T11:01:17;14.65;;;6.72;;
29878;SDS011;16752;53.364;-1.488;2023-06-10T11:04:04;16.60;;;9.00;;
29878;SDS011;16752;53.364;-1.488;2023-06-10T11:06:58;19.58;;;9.63;;
29878;SDS011;16752;53.364;-1.488;2023-06-10T11:13:57;18.85;;;10.13;;
29878;SDS011;16752;53.364;-1.488;2023-06-10T11:41:34;14.73;;;8.50;;
29878;SDS011;16752;53.364;-1.488;2023-06-10T11:48:07;21.45;;;9.38;;
29878;SDS011;16752;53.364;-1.488;2023-06-10T11:51:17;15.20;;;8.18;;
29878;SDS011;16752;53.364;-1.488;2023-06-10T11:54:17;18.83;;;9.23;;
29878;SDS011;16752;53.364;-1.488;2023-06-10T12:01:27;19.70;;;9.13;;
29878;SDS011;16752;53.364;-1.488;2023-06-10T12:08:21;17.90;;;7.93;;
29878;SDS011;16752;53.364;-1.488;2023-06-10T12:11:13;16.95;;;7.97;;
29878;SDS011;16752;53.364;-1.488;2023-06-10T12:14:05;17.20;;;8.80;;
29878;SDS011;16752;53.364;-1.488;2023-06-10T12:16:52;16.20;;;8.50;;
29878;SDS011;16752;53.364;-1.488;2023-06-10T12:19:39;18.20;;;8.75;;
29878;SDS011;16752;53.364;-1.488;2023-06-10T12:36:15;19.42;;;9.15;;
29878;SDS011;16752;53.364;-1.488;2023-06-10T12:56:48;13.20;;;7.55;;
29878;SDS011;16752;53.364;-1.488;2023-06-10T13:00:05;14.13;;;8.48;;
29878;SDS011;16752;53.364;-1.488;2023-06-10T13:13:45;11.93;;;7.78;;
29878;SDS011;16752;53.364;-1.488;2023-06-10T13:16:33;15.05;;;8.30;;
29878;SDS011;16752;53.364;-1.488;2023-06-10T13:25:14;19.58;;;8.52;;
29878;SDS011;16752;53.364;-1.488;2023-06-10T13:28:25;15.45;;;8.27;;
29878;SDS011;16752;53.364;-1.488;2023-06-10T13:31:13;12.35;;;8.25;;
29878;SDS011;16752;53.364;-1.488;2023-06-10T13:36:57;19.33;;;8.82;;
29878;SDS011;16752;53.364;-1.488;2023-06-10T13:39:53;10.95;;;8.30;;
29878;SDS011;16752;53.364;-1.488;2023-06-10T13:42:44;13.55;;;7.97;;
29878;SDS011;16752;53.364;-1.488;2023-06-10T13:52:04;13.68;;;7.38;;
29878;SDS011;16752;53.364;-1.488;2023-06-10T13:58:14;14.70;;;7.95;;
29878;SDS011;16752;53.364;-1.488;2023-06-10T14:26:52;8.25;;;7.47;;
29878;SDS011;16752;53.364;-1.488;2023-06-10T14:29:39;11.48;;;7.82;;
29878;SDS011;16752;53.364;-1.488;2023-06-10T14:32:49;13.63;;;7.68;;
29878;SDS011;16752;53.364;-1.488;2023-06-10T14:35:33;13.13;;;7.93;;
29878;SDS011;16752;53.364;-1.488;2023-06-10T14:42:11;10.98;;;7.18;;
29878;SDS011;16752;53.364;-1.488;2023-06-10T14:45:07;10.10;;;7.28;;
29878;SDS011;16752;53.364;-1.488;2023-06-10T14:47:53;8.25;;;7.32;;
29878;SDS011;16752;53.364;-1.488;2023-06-10T14:50:38;15.25;;;7.65;;
29878;SDS011;16752;53.364;-1.488;2023-06-10T14:53:31;9.27;;;6.55;;
29878;SDS011;16752;53.364;-1.488;2023-06-10T14:56:15;9.45;;;7.45;;
29878;SDS011;16752;53.364;-1.488;2023-06-10T14:59:11;9.82;;;6.97;;
29878;SDS011;16752;53.364;-1.488;2023-06-10T15:02:15;13.48;;;7.15;;
29878;SDS011;16752;53.364;-1.488;2023-06-10T15:05:30;8.43;;;7.07;;
29878;SDS011;16752;53.364;-1.488;2023-06-10T15:08:24;7.53;;;6.82;;
29878;SDS011;16752;53.364;-1.488;2023-06-10T15:11:35;8.60;;;7.30;;
29878;SDS011;16752;53.364;-1.488;2023-06-10T15:14:50;12.65;;;7.28;;
29878;SDS011;16752;53.364;-1.488;2023-06-10T15:17:37;12.80;;;8.40;;
29878;SDS011;16752;53.364;-1.488;2023-06-10T15:23:48;13.48;;;8.75;;
29878;SDS011;16752;53.364;-1.488;2023-06-10T15:26:34;8.75;;;7.35;;
29878;SDS011;16752;53.364;-1.488;2023-06-10T15:29:18;14.20;;;9.35;;
29878;SDS011;16752;53.364;-1.488;2023-06-10T15:32:07;12.95;;;7.22;;
29878;SDS011;16752;53.364;-1.488;2023-06-10T15:35:14;9.68;;;7.22;;
29878;SDS011;16752;53.364;-1.488;2023-06-10T15:51:47;8.82;;;7.85;;
29878;SDS011;16752;53.364;-1.488;2023-06-10T15:54:34;12.52;;;7.43;;
29878;SDS011;16752;53.364;-1.488;2023-06-10T15:57:41;13.15;;;6.70;;
29878;SDS011;16752;53.364;-1.488;2023-06-10T16:03:05;8.63;;;7.18;;
29878;SDS011;16752;53.364;-1.488;2023-06-10T16:05:52;12.40;;;7.32;;
29878;SDS011;16752;53.364;-1.488;2023-06-10T16:14:34;6.50;;;5.85;;
29878;SDS011;16752;53.364;-1.488;2023-06-10T16:17:34;11.50;;;7.30;;
29878;SDS011;16752;53.364;-1.488;2023-06-10T16:20:18;12.70;;;7.50;;
29878;SDS011;16752;53.364;-1.488;2023-06-10T16:29:20;10.02;;;6.18;;
29878;SDS011;16752;53.364;-1.488;2023-06-10T16:32:07;10.57;;;6.80;;
29878;SDS011;16752;53.364;-1.488;2023-06-10T16:35:04;12.55;;;7.78;;
29878;SDS011;16752;53.364;-1.488;2023-06-10T16:41:32;13.77;;;8.23;;
29878;SDS011;16752;53.364;-1.488;2023-06-10T16:44:20;8.65;;;7.75;;
29878;SDS011;16752;53.364;-1.488;2023-06-10T16:47:37;14.50;;;8.05;;
29878;SDS011;16752;53.364;-1.488;2023-06-10T16:50:40;10.67;;;7.53;;
29878;SDS011;16752;53.364;-1.488;2023-06-10T16:53:38;11.27;;;6.95;;
29878;SDS011;16752;53.364;-1.488;2023-06-10T16:56:31;9.15;;;7.28;;
29878;SDS011;16752;53.364;-1.488;2023-06-10T16:59:37;9.32;;;7.40;;
29878;SDS011;16752;53.364;-1.488;2023-06-10T17:05:39;9.00;;;7.23;;
29878;SDS011;16752;53.364;-1.488;2023-06-10T17:08:26;9.40;;;6.88;;
29878;SDS011;16752;53.364;-1.488;2023-06-10T17:11:12;8.18;;;6.35;;
29878;SDS011;16752;53.364;-1.488;2023-06-10T17:14:01;7.35;;;6.28;;
29878;SDS011;16752;53.364;-1.488;2023-06-10T17:16:48;10.50;;;7.22;;
29878;SDS011;16752;53.364;-1.488;2023-06-10T17:26:07;8.43;;;7.47;;
29878;SDS011;16752;53.364;-1.488;2023-06-10T17:29:06;9.07;;;6.43;;
29878;SDS011;16752;53.364;-1.488;2023-06-10T17:41:07;11.27;;;7.82;;
29878;SDS011;16752;53.364;-1.488;2023-06-10T17:44:08;12.27;;;7.85;;
29878;SDS011;16752;53.364;-1.488;2023-06-10T17:47:16;12.45;;;7.38;;
29878;SDS011;16752;53.364;-1.488;2023-06-10T17:50:03;10.10;;;7.00;;
29878;SDS011;16752;53.364;-1.488;2023-06-10T17:52:56;8.38;;;7.47;;
29878;SDS011;16752;53.364;-1.488;2023-06-10T17:55:46;13.45;;;8.15;;
29878;SDS011;16752;53.364;-1.488;2023-06-10T17:58:33;11.25;;;7.60;;
29878;SDS011;16752;53.364;-1.488;2023-06-10T18:01:17;11.07;;;6.75;;
29878;SDS011;16752;53.364;-1.488;2023-06-10T18:04:02;9.18;;;7.00;;
29878;SDS011;16752;53.364;-1.488;2023-06-10T18:06:50;11.13;;;6.63;;
29878;SDS011;16752;53.364;-1.488;2023-06-10T18:09:34;9.02;;;6.55;;
29878;SDS011;16752;53.364;-1.488;2023-06-10T18:12:18;13.52;;;6.45;;
29878;SDS011;16752;53.364;-1.488;2023-06-10T18:15:03;10.07;;;6.18;;
29878;SDS011;16752;53.364;-1.488;2023-06-10T18:17:48;7.82;;;6.78;;
29878;SDS011;16752;53.364;-1.488;2023-06-10T18:20:32;15.18;;;7.10;;
29878;SDS011;16752;53.364;-1.488;2023-06-10T18:23:16;15.10;;;7.45;;
29878;SDS011;16752;53.364;-1.488;2023-06-10T18:26:00;10.02;;;7.10;;
29878;SDS011;16752;53.364;-1.488;2023-06-10T18:28:44;12.57;;;7.40;;
29878;SDS011;16752;53.364;-1.488;2023-06-10T18:31:28;9.35;;;6.60;;
29878;SDS011;16752;53.364;-1.488;2023-06-10T18:34:12;13.07;;;7.35;;
29878;SDS011;16752;53.364;-1.488;2023-06-10T18:36:56;12.43;;;7.05;;
29878;SDS011;16752;53.364;-1.488;2023-06-10T18:39:41;11.50;;;7.05;;
29878;SDS011;16752;53.364;-1.488;2023-06-10T18:42:27;11.77;;;6.78;;
29878;SDS011;16752;53.364;-1.488;2023-06-10T18:45:24;8.95;;;6.90;;
29878;SDS011;16752;53.364;-1.488;2023-06-10T18:48:08;10.90;;;6.70;;
29878;SDS011;16752;53.364;-1.488;2023-06-10T18:50:53;10.57;;;6.07;;
29878;SDS011;16752;53.364;-1.488;2023-06-10T18:53:37;13.50;;;7.53;;
29878;SDS011;16752;53.364;-1.488;2023-06-10T18:56:21;8.82;;;6.68;;
29878;SDS011;16752;53.364;-1.488;2023-06-10T18:59:05;13.85;;;7.18;;
29878;SDS011;16752;53.364;-1.488;2023-06-10T19:01:49;12.10;;;7.40;;
29878;SDS011;16752;53.364;-1.488;2023-06-10T19:04:33;10.45;;;7.18;;
29878;SDS011;16752;53.364;-1.488;2023-06-10T19:07:17;12.55;;;6.82;;
29878;SDS011;16752;53.364;-1.488;2023-06-10T19:10:02;13.82;;;7.88;;
29878;SDS011;16752;53.364;-1.488;2023-06-10T19:12:46;13.32;;;6.68;;
29878;SDS011;16752;53.364;-1.488;2023-06-10T19:15:30;7.47;;;6.43;;
29878;SDS011;16752;53.364;-1.488;2023-06-10T19:18:14;14.48;;;8.10;;
29878;SDS011;16752;53.364;-1.488;2023-06-10T19:20:58;11.32;;;6.70;;
29878;SDS011;16752;53.364;-1.488;2023-06-10T19:23:43;9.05;;;7.22;;
29878;SDS011;16752;53.364;-1.488;2023-06-10T19:26:27;10.80;;;7.47;;
29878;SDS011;16752;53.364;-1.488;2023-06-10T19:29:11;12.77;;;7.57;;
29878;SDS011;16752;53.364;-1.488;2023-06-10T19:31:55;10.43;;;7.43;;
29878;SDS011;16752;53.364;-1.488;2023-06-10T19:34:39;12.68;;;7.47;;
29878;SDS011;16752;53.364;-1.488;2023-06-10T19:37:23;13.80;;;7.70;;
29878;SDS011;16752;53.364;-1.488;2023-06-10T19:40:08;11.02;;;7.07;;
29878;SDS011;16752;53.364;-1.488;2023-06-10T19:42:52;11.10;;;7.32;;
29878;SDS011;16752;53.364;-1.488;2023-06-10T19:45:36;15.23;;;7.93;;
29878;SDS011;16752;53.364;-1.488;2023-06-10T19:48:20;12.63;;;7.13;;
29878;SDS011;16752;53.364;-1.488;2023-06-10T19:51:04;13.00;;;6.80;;
29878;SDS011;16752;53.364;-1.488;2023-06-10T19:53:48;10.60;;;6.50;;
29878;SDS011;16752;53.364;-1.488;2023-06-10T19:56:32;10.45;;;6.43;;
29878;SDS011;16752;53.364;-1.488;2023-06-10T19:59:16;9.88;;;6.50;;
29878;SDS011;16752;53.364;-1.488;2023-06-10T20:01:59;10.93;;;6.55;;
29878;SDS011;16752;53.364;-1.488;2023-06-10T20:04:44;7.43;;;5.93;;
29878;SDS011;16752;53.364;-1.488;2023-06-10T20:07:27;11.10;;;6.22;;
29878;SDS011;16752;53.364;-1.488;2023-06-10T20:10:11;9.13;;;5.93;;
29878;SDS011;16752;53.364;-1.488;2023-06-10T20:12:55;9.60;;;6.13;;
29878;SDS011;16752;53.364;-1.488;2023-06-10T20:15:39;10.18;;;5.93;;
29878;SDS011;16752;53.364;-1.488;2023-06-10T20:18:24;12.48;;;6.63;;
29878;SDS011;16752;53.364;-1.488;2023-06-10T20:21:09;9.82;;;5.88;;
29878;SDS011;16752;53.364;-1.488;2023-06-10T20:23:53;11.65;;;6.18;;
29878;SDS011;16752;53.364;-1.488;2023-06-10T20:26:36;11.98;;;6.18;;
29878;SDS011;16752;53.364;-1.488;2023-06-10T20:29:20;10.55;;;6.47;;
29878;SDS011;16752;53.364;-1.488;2023-06-10T20:32:05;10.88;;;6.20;;
29878;SDS011;16752;53.364;-1.488;2023-06-10T20:34:49;11.55;;;6.20;;
29878;SDS011;16752;53.364;-1.488;2023-06-10T20:37:33;12.13;;;5.70;;
29878;SDS011;16752;53.364;-1.488;2023-06-10T20:40:18;10.90;;;6.25;;
29878;SDS011;16752;53.364;-1.488;2023-06-10T20:43:02;8.68;;;6.35;;
29878;SDS011;16752;53.364;-1.488;2023-06-10T20:45:46;7.45;;;5.80;;
29878;SDS011;16752;53.364;-1.488;2023-06-10T20:48:30;8.20;;;5.72;;
29878;SDS011;16752;53.364;-1.488;2023-06-10T20:51:14;11.18;;;5.68;;
29878;SDS011;16752;53.364;-1.488;2023-06-10T20:53:59;9.75;;;6.13;;
29878;SDS011;16752;53.364;-1.488;2023-06-10T20:56:43;9.82;;;6.22;;
29878;SDS011;16752;53.364;-1.488;2023-06-10T20:59:28;17.65;;;6.88;;
29878;SDS011;16752;53.364;-1.488;2023-06-10T21:02:12;10.57;;;5.93;;
29878;SDS011;16752;53.364;-1.488;2023-06-10T21:04:56;18.85;;;6.47;;
29878;SDS011;16752;53.364;-1.488;2023-06-10T21:07:43;14.50;;;5.85;;
29878;SDS011;16752;53.364;-1.488;2023-06-10T21:10:28;10.27;;;5.88;;
29878;SDS011;16752;53.364;-1.488;2023-06-10T21:13:12;9.50;;;6.03;;
29878;SDS011;16752;53.364;-1.488;2023-06-10T21:15:56;11.48;;;6.03;;
29878;SDS011;16752;53.364;-1.488;2023-06-10T21:18:40;10.18;;;6.00;;
29878;SDS011;16752;53.364;-1.488;2023-06-10T21:21:24;7.47;;;5.55;;
29878;SDS011;16752;53.364;-1.488;2023-06-10T21:24:08;7.97;;;5.82;;
29878;SDS011;16752;53.364;-1.488;2023-06-10T21:26:52;9.15;;;5.60;;
29878;SDS011;16752;53.364;-1.488;2023-06-10T21:29:37;13.48;;;6.68;;
29878;SDS011;16752;53.364;-1.488;2023-06-10T21:32:21;11.05;;;6.82;;
29878;SDS011;16752;53.364;-1.488;2023-06-10T21:35:06;12.25;;;6.63;;
29878;SDS011;16752;53.364;-1.488;2023-06-10T21:37:50;13.95;;;6.40;;
29878;SDS011;16752;53.364;-1.488;2023-06-10T21:40:34;9.25;;;6.03;;
29878;SDS011;16752;53.364;-1.488;2023-06-10T21:43:18;10.68;;;5.90;;
29878;SDS011;16752;53.364;-1.488;2023-06-10T21:46:02;9.88;;;5.82;;
29878;SDS011;16752;53.364;-1.488;2023-06-10T21:48:46;12.10;;;6.47;;
29878;SDS011;16752;53.364;-1.488;2023-06-10T21:51:30;14.90;;;6.57;;
29878;SDS011;16752;53.364;-1.488;2023-06-10T21:54:14;13.35;;;7.55;;
29878;SDS011;16752;53.364;-1.488;2023-06-10T21:56:58;12.68;;;6.75;;
29878;SDS011;16752;53.364;-1.488;2023-06-10T21:59:42;16.75;;;7.22;;